sensor_id;sensor_type;location;lat;lon;timestamp;P1;durP1;ratioP1;P2;durP2;ratioP2
32788;SDS011;19141;48.980;8.410;2023-04-29T04:22:32;7.60;;;4.53;;
32788;SDS011;19141;48.980;8.410;2023-04-29T04:25:13;9.30;;;5.03;;
32788;SDS011;19141;48.980;8.410;2023-04-29T04:27:39;9.75;;;5.43;;
32788;SDS011;19141;48.980;8.410;2023-04-29T04:30:09;13.90;;;5.55;;
32788;SDS011;19141;48.980;8.410;2023-04-29T04:32:35;11.65;;;5.03;;
32788;SDS011;19141;48.980;8.410;2023-04-29T04:35:00;10.27;;;5.30;;
32788;SDS011;19141;48.980;8.410;2023-04-29T04:37:26;13.18;;;5.47;;
32788;SDS011;19141;48.980;8.410;2023-04-29T04:39:55;10.23;;;5.20;;
32788;SDS011;19141;48.980;8.410;2023-04-29T04:42:21;10.40;;;5.18;;
32788;SDS011;19141;48.980;8.410;2023-04-29T04:44:49;12.48;;;5.50;;
32788;SDS011;19141;48.980;8.410;2023-04-29T04:47:25;9.43;;;5.10;;
32788;SDS011;19141;48.980;8.410;2023-04-29T04:49:59;8.68;;;5.00;;
32788;SDS011;19141;48.980;8.410;2023-04-29T04:52:25;9.55;;;4.70;;
32788;SDS011;19141;48.980;8.410;2023-04-29T04:55:15;11.95;;;5.25;;
32788;SDS011;19141;48.980;8.410;2023-04-29T04:57:44;11.23;;;5.57;;
32788;SDS011;19141;48.980;8.410;2023-04-29T05:00:10;8.75;;;4.13;;
32788;SDS011;19141;48.980;8.410;2023-04-29T05:02:36;8.50;;;4.50;;
32788;SDS011;19141;48.980;8.410;2023-04-29T05:05:01;7.60;;;4.60;;
32788;SDS011;19141;48.980;8.410;2023-04-29T05:07:31;8.13;;;4.32;;
32788;SDS011;19141;48.980;8.410;2023-04-29T05:10:03;5.95;;;3.90;;
32788;SDS011;19141;48.980;8.410;2023-04-29T05:14:57;12.15;;;4.60;;
32788;SDS011;19141;48.980;8.410;2023-04-29T05:17:25;12.10;;;4.55;;
32788;SDS011;19141;48.980;8.410;2023-04-29T05:19:50;7.70;;;4.68;;
32788;SDS011;19141;48.980;8.410;2023-04-29T05:22:16;10.07;;;3.67;;
32788;SDS011;19141;48.980;8.410;2023-04-29T05:24:42;8.02;;;4.72;;
32788;SDS011;19141;48.980;8.410;2023-04-29T05:27:07;8.18;;;4.43;;
32788;SDS011;19141;48.980;8.410;2023-04-29T05:29:32;8.00;;;4.22;;
32788;SDS011;19141;48.980;8.410;2023-04-29T05:34:27;8.60;;;4.15;;
32788;SDS011;19141;48.980;8.410;2023-04-29T05:36:52;9.60;;;5.30;;
32788;SDS011;19141;48.980;8.410;2023-04-29T05:39:18;7.65;;;4.32;;
32788;SDS011;19141;48.980;8.410;2023-04-29T05:41:55;10.20;;;4.65;;
32788;SDS011;19141;48.980;8.410;2023-04-29T05:44:34;7.20;;;3.67;;
32788;SDS011;19141;48.980;8.410;2023-04-29T05:47:00;9.45;;;4.28;;
32788;SDS011;19141;48.980;8.410;2023-04-29T05:49:25;9.40;;;3.97;;
32788;SDS011;19141;48.980;8.410;2023-04-29T05:51:51;9.75;;;4.18;;
32788;SDS011;19141;48.980;8.410;2023-04-29T05:54:16;10.07;;;3.80;;
32788;SDS011;19141;48.980;8.410;2023-04-29T05:56:43;10.32;;;4.25;;
32788;SDS011;19141;48.980;8.410;2023-04-29T05:59:09;7.75;;;3.65;;
32788;SDS011;19141;48.980;8.410;2023-04-29T06:01:34;9.30;;;4.45;;
32788;SDS011;19141;48.980;8.410;2023-04-29T06:04:00;7.85;;;3.83;;
32788;SDS011;19141;48.980;8.410;2023-04-29T06:06:37;5.82;;;3.63;;
32788;SDS011;19141;48.980;8.410;2023-04-29T06:09:25;5.50;;;3.60;;
32788;SDS011;19141;48.980;8.410;2023-04-29T06:11:51;4.88;;;3.17;;
32788;SDS011;19141;48.980;8.410;2023-04-29T06:14:19;6.20;;;3.20;;
32788;SDS011;19141;48.980;8.410;2023-04-29T06:16:44;6.05;;;2.85;;
32788;SDS011;19141;48.980;8.410;2023-04-29T06:19:10;8.00;;;3.80;;
32788;SDS011;19141;48.980;8.410;2023-04-29T06:21:35;9.43;;;3.67;;
32788;SDS011;19141;48.980;8.410;2023-04-29T06:24:00;6.07;;;3.13;;
32788;SDS011;19141;48.980;8.410;2023-04-29T06:26:26;6.53;;;3.40;;
32788;SDS011;19141;48.980;8.410;2023-04-29T06:28:51;6.05;;;2.92;;
32788;SDS011;19141;48.980;8.410;2023-04-29T06:31:18;3.97;;;2.90;;
32788;SDS011;19141;48.980;8.410;2023-04-29T06:33:43;5.88;;;3.35;;
32788;SDS011;19141;48.980;8.410;2023-04-29T06:36:09;6.47;;;3.45;;
32788;SDS011;19141;48.980;8.410;2023-04-29T06:38:53;5.00;;;2.67;;
32788;SDS011;19141;48.980;8.410;2023-04-29T06:41:48;6.22;;;3.20;;
32788;SDS011;19141;48.980;8.410;2023-04-29T06:44:31;5.55;;;2.92;;
32788;SDS011;19141;48.980;8.410;2023-04-29T06:49:53;5.13;;;3.05;;
32788;SDS011;19141;48.980;8.410;2023-04-29T06:52:20;5.72;;;3.30;;
32788;SDS011;19141;48.980;8.410;2023-04-29T06:54:46;5.10;;;3.00;;
32788;SDS011;19141;48.980;8.410;2023-04-29T06:57:12;5.25;;;2.78;;
32788;SDS011;19141;48.980;8.410;2023-04-29T06:59:37;5.75;;;3.17;;
32788;SDS011;19141;48.980;8.410;2023-04-29T07:02:03;5.47;;;2.70;;
32788;SDS011;19141;48.980;8.410;2023-04-29T07:04:28;6.38;;;3.05;;
32788;SDS011;19141;48.980;8.410;2023-04-29T07:06:54;7.38;;;2.90;;
32788;SDS011;19141;48.980;8.410;2023-04-29T07:09:20;5.57;;;3.25;;
32788;SDS011;19141;48.980;8.410;2023-04-29T07:11:47;6.00;;;2.78;;
32788;SDS011;19141;48.980;8.410;2023-04-29T07:14:13;6.10;;;2.95;;
32788;SDS011;19141;48.980;8.410;2023-04-29T07:16:38;5.07;;;3.03;;
32788;SDS011;19141;48.980;8.410;2023-04-29T07:19:08;7.80;;;2.60;;
32788;SDS011;19141;48.980;8.410;2023-04-29T07:21:33;4.75;;;2.80;;
32788;SDS011;19141;48.980;8.410;2023-04-29T07:23:59;5.70;;;2.72;;
32788;SDS011;19141;48.980;8.410;2023-04-29T07:26:27;3.47;;;2.38;;
32788;SDS011;19141;48.980;8.410;2023-04-29T07:28:52;6.97;;;3.05;;
32788;SDS011;19141;48.980;8.410;2023-04-29T07:31:18;7.60;;;2.67;;
32788;SDS011;19141;48.980;8.410;2023-04-29T07:33:44;7.05;;;3.33;;
32788;SDS011;19141;48.980;8.410;2023-04-29T07:36:11;6.47;;;3.15;;
32788;SDS011;19141;48.980;8.410;2023-04-29T07:38:36;5.68;;;2.63;;
32788;SDS011;19141;48.980;8.410;2023-04-29T07:41:02;7.68;;;2.63;;
32788;SDS011;19141;48.980;8.410;2023-04-29T07:43:30;4.60;;;2.67;;
32788;SDS011;19141;48.980;8.410;2023-04-29T07:45:56;5.03;;;2.95;;
32788;SDS011;19141;48.980;8.410;2023-04-29T07:48:21;5.70;;;2.70;;
32788;SDS011;19141;48.980;8.410;2023-04-29T07:50:47;6.38;;;2.58;;
32788;SDS011;19141;48.980;8.410;2023-04-29T07:53:15;4.03;;;2.30;;
32788;SDS011;19141;48.980;8.410;2023-04-29T07:55:42;4.10;;;2.47;;
32788;SDS011;19141;48.980;8.410;2023-04-29T07:58:07;4.18;;;2.63;;
32788;SDS011;19141;48.980;8.410;2023-04-29T08:00:33;3.90;;;2.42;;
32788;SDS011;19141;48.980;8.410;2023-04-29T08:02:58;3.83;;;2.28;;
32788;SDS011;19141;48.980;8.410;2023-04-29T08:05:24;3.60;;;2.35;;
32788;SDS011;19141;48.980;8.410;2023-04-29T08:07:50;5.50;;;2.67;;
32788;SDS011;19141;48.980;8.410;2023-04-29T08:10:16;4.50;;;2.45;;
32788;SDS011;19141;48.980;8.410;2023-04-29T08:12:46;3.83;;;2.75;;
32788;SDS011;19141;48.980;8.410;2023-04-29T08:15:12;3.67;;;2.70;;
32788;SDS011;19141;48.980;8.410;2023-04-29T08:17:38;5.15;;;2.47;;
32788;SDS011;19141;48.980;8.410;2023-04-29T08:20:03;7.50;;;2.55;;
32788;SDS011;19141;48.980;8.410;2023-04-29T08:22:29;3.05;;;2.08;;
32788;SDS011;19141;48.980;8.410;2023-04-29T08:24:55;5.72;;;2.40;;
32788;SDS011;19141;48.980;8.410;2023-04-29T08:27:20;3.92;;;2.53;;
32788;SDS011;19141;48.980;8.410;2023-04-29T08:29:46;5.78;;;3.08;;
32788;SDS011;19141;48.980;8.410;2023-04-29T08:32:11;4.88;;;2.33;;
32788;SDS011;19141;48.980;8.410;2023-04-29T08:34:37;4.38;;;2.35;;
32788;SDS011;19141;48.980;8.410;2023-04-29T08:37:03;5.82;;;2.63;;
32788;SDS011;19141;48.980;8.410;2023-04-29T08:39:28;3.95;;;2.42;;
32788;SDS011;19141;48.980;8.410;2023-04-29T08:41:57;3.83;;;2.55;;
32788;SDS011;19141;48.980;8.410;2023-04-29T08:44:26;4.22;;;2.45;;
32788;SDS011;19141;48.980;8.410;2023-04-29T08:46:54;3.78;;;2.45;;
32788;SDS011;19141;48.980;8.410;2023-04-29T08:49:19;3.47;;;2.22;;
32788;SDS011;19141;48.980;8.410;2023-04-29T08:51:47;6.15;;;3.33;;
32788;SDS011;19141;48.980;8.410;2023-04-29T08:54:18;4.43;;;2.75;;
32788;SDS011;19141;48.980;8.410;2023-04-29T08:56:44;4.35;;;2.47;;
32788;SDS011;19141;48.980;8.410;2023-04-29T08:59:11;3.38;;;2.30;;
32788;SDS011;19141;48.980;8.410;2023-04-29T09:01:39;6.45;;;2.50;;
32788;SDS011;19141;48.980;8.410;2023-04-29T09:06:50;6.57;;;3.35;;
32788;SDS011;19141;48.980;8.410;2023-04-29T09:09:17;6.45;;;2.65;;
32788;SDS011;19141;48.980;8.410;2023-04-29T09:11:43;3.30;;;2.13;;
32788;SDS011;19141;48.980;8.410;2023-04-29T09:14:09;8.20;;;3.33;;
32788;SDS011;19141;48.980;8.410;2023-04-29T09:16:34;2.63;;;2.10;;
32788;SDS011;19141;48.980;8.410;2023-04-29T09:19:02;2.53;;;1.90;;
32788;SDS011;19141;48.980;8.410;2023-04-29T09:21:27;3.35;;;2.50;;
32788;SDS011;19141;48.980;8.410;2023-04-29T09:23:57;3.75;;;2.40;;
32788;SDS011;19141;48.980;8.410;2023-04-29T09:26:27;5.15;;;2.30;;
32788;SDS011;19141;48.980;8.410;2023-04-29T09:29:08;3.03;;;2.08;;
32788;SDS011;19141;48.980;8.410;2023-04-29T09:31:38;3.25;;;2.63;;
32788;SDS011;19141;48.980;8.410;2023-04-29T09:34:04;3.63;;;2.92;;
32788;SDS011;19141;48.980;8.410;2023-04-29T09:36:37;3.97;;;2.60;;
32788;SDS011;19141;48.980;8.410;2023-04-29T09:39:08;3.30;;;1.98;;
32788;SDS011;19141;48.980;8.410;2023-04-29T09:44:08;4.13;;;2.60;;
32788;SDS011;19141;48.980;8.410;2023-04-29T09:46:35;4.30;;;2.63;;
32788;SDS011;19141;48.980;8.410;2023-04-29T09:49:03;4.65;;;2.50;;
32788;SDS011;19141;48.980;8.410;2023-04-29T09:51:51;4.57;;;2.42;;
32788;SDS011;19141;48.980;8.410;2023-04-29T09:54:21;6.60;;;2.40;;
32788;SDS011;19141;48.980;8.410;2023-04-29T09:56:49;3.67;;;2.15;;
32788;SDS011;19141;48.980;8.410;2023-04-29T09:59:17;3.92;;;2.63;;
32788;SDS011;19141;48.980;8.410;2023-04-29T10:01:44;4.53;;;2.33;;
32788;SDS011;19141;48.980;8.410;2023-04-29T10:04:15;4.00;;;2.50;;
32788;SDS011;19141;48.980;8.410;2023-04-29T10:06:41;2.85;;;2.05;;
32788;SDS011;19141;48.980;8.410;2023-04-29T10:09:09;3.80;;;1.90;;
32788;SDS011;19141;48.980;8.410;2023-04-29T10:11:40;3.78;;;2.20;;
32788;SDS011;19141;48.980;8.410;2023-04-29T10:14:06;4.32;;;2.60;;
32788;SDS011;19141;48.980;8.410;2023-04-29T10:16:43;6.40;;;3.78;;
32788;SDS011;19141;48.980;8.410;2023-04-29T10:19:11;4.93;;;2.83;;
32788;SDS011;19141;48.980;8.410;2023-04-29T10:21:39;6.30;;;2.70;;
32788;SDS011;19141;48.980;8.410;2023-04-29T10:24:05;2.58;;;1.83;;
32788;SDS011;19141;48.980;8.410;2023-04-29T10:26:31;4.78;;;2.58;;
32788;SDS011;19141;48.980;8.410;2023-04-29T10:28:58;4.63;;;2.47;;
32788;SDS011;19141;48.980;8.410;2023-04-29T10:31:25;4.53;;;2.50;;
32788;SDS011;19141;48.980;8.410;2023-04-29T10:33:53;5.80;;;3.30;;
32788;SDS011;19141;48.980;8.410;2023-04-29T10:36:21;5.57;;;3.65;;
32788;SDS011;19141;48.980;8.410;2023-04-29T10:38:48;7.60;;;4.10;;
32788;SDS011;19141;48.980;8.410;2023-04-29T10:41:21;7.55;;;4.07;;
32788;SDS011;19141;48.980;8.410;2023-04-29T10:43:50;7.13;;;3.80;;
32788;SDS011;19141;48.980;8.410;2023-04-29T10:46:23;5.32;;;3.28;;
32788;SDS011;19141;48.980;8.410;2023-04-29T10:48:56;6.90;;;3.75;;
32788;SDS011;19141;48.980;8.410;2023-04-29T10:51:29;5.95;;;3.17;;
32788;SDS011;19141;48.980;8.410;2023-04-29T10:54:00;6.95;;;3.63;;
32788;SDS011;19141;48.980;8.410;2023-04-29T10:56:43;6.18;;;3.75;;
32788;SDS011;19141;48.980;8.410;2023-04-29T10:59:14;5.72;;;3.80;;
32788;SDS011;19141;48.980;8.410;2023-04-29T11:02:06;4.80;;;2.80;;
32788;SDS011;19141;48.980;8.410;2023-04-29T11:06:59;5.43;;;3.30;;
32788;SDS011;19141;48.980;8.410;2023-04-29T11:09:27;8.07;;;3.75;;
32788;SDS011;19141;48.980;8.410;2023-04-29T11:14:21;6.68;;;3.47;;
32788;SDS011;19141;48.980;8.410;2023-04-29T11:16:53;7.18;;;4.03;;
32788;SDS011;19141;48.980;8.410;2023-04-29T11:19:24;5.85;;;3.08;;
32788;SDS011;19141;48.980;8.410;2023-04-29T11:22:07;6.15;;;3.33;;
32788;SDS011;19141;48.980;8.410;2023-04-29T11:27:35;5.80;;;3.30;;
32788;SDS011;19141;48.980;8.410;2023-04-29T11:30:02;5.63;;;3.47;;
32788;SDS011;19141;48.980;8.410;2023-04-29T11:32:31;5.43;;;3.55;;
32788;SDS011;19141;48.980;8.410;2023-04-29T11:37:36;6.70;;;3.80;;
32788;SDS011;19141;48.980;8.410;2023-04-29T11:40:03;5.68;;;3.47;;
32788;SDS011;19141;48.980;8.410;2023-04-29T11:42:32;9.23;;;4.55;;
32788;SDS011;19141;48.980;8.410;2023-04-29T11:44:58;6.50;;;3.67;;
32788;SDS011;19141;48.980;8.410;2023-04-29T11:47:25;9.63;;;4.88;;
32788;SDS011;19141;48.980;8.410;2023-04-29T11:49:52;9.85;;;4.75;;
32788;SDS011;19141;48.980;8.410;2023-04-29T11:52:18;4.72;;;3.55;;
32788;SDS011;19141;48.980;8.410;2023-04-29T11:54:44;10.80;;;4.00;;
32788;SDS011;19141;48.980;8.410;2023-04-29T11:57:11;8.73;;;4.63;;
32788;SDS011;19141;48.980;8.410;2023-04-29T11:59:37;8.00;;;3.47;;
32788;SDS011;19141;48.980;8.410;2023-04-29T12:02:02;7.07;;;3.22;;
32788;SDS011;19141;48.980;8.410;2023-04-29T12:04:28;5.80;;;3.60;;
32788;SDS011;19141;48.980;8.410;2023-04-29T12:06:55;5.22;;;2.53;;
32788;SDS011;19141;48.980;8.410;2023-04-29T12:09:21;5.35;;;2.97;;
32788;SDS011;19141;48.980;8.410;2023-04-29T12:11:47;4.50;;;2.60;;
32788;SDS011;19141;48.980;8.410;2023-04-29T12:14:14;4.93;;;2.70;;
32788;SDS011;19141;48.980;8.410;2023-04-29T12:16:40;7.57;;;3.22;;
32788;SDS011;19141;48.980;8.410;2023-04-29T12:19:06;5.40;;;2.83;;
32788;SDS011;19141;48.980;8.410;2023-04-29T12:21:34;5.85;;;3.20;;
32788;SDS011;19141;48.980;8.410;2023-04-29T12:24:01;5.65;;;3.30;;
32788;SDS011;19141;48.980;8.410;2023-04-29T12:26:27;4.03;;;2.20;;
32788;SDS011;19141;48.980;8.410;2023-04-29T12:28:55;4.78;;;2.58;;
32788;SDS011;19141;48.980;8.410;2023-04-29T12:31:22;7.82;;;3.08;;
32788;SDS011;19141;48.980;8.410;2023-04-29T12:33:48;4.30;;;2.47;;
32788;SDS011;19141;48.980;8.410;2023-04-29T12:36:18;5.43;;;3.03;;
32788;SDS011;19141;48.980;8.410;2023-04-29T12:38:43;6.50;;;3.47;;
32788;SDS011;19141;48.980;8.410;2023-04-29T12:41:11;7.63;;;3.53;;
32788;SDS011;19141;48.980;8.410;2023-04-29T12:43:38;4.63;;;2.80;;
32788;SDS011;19141;48.980;8.410;2023-04-29T12:46:06;4.53;;;2.65;;
32788;SDS011;19141;48.980;8.410;2023-04-29T12:48:32;6.30;;;3.33;;
32788;SDS011;19141;48.980;8.410;2023-04-29T12:51:02;4.82;;;2.50;;
32788;SDS011;19141;48.980;8.410;2023-04-29T12:53:29;5.50;;;2.90;;
32788;SDS011;19141;48.980;8.410;2023-04-29T12:55:55;5.88;;;3.55;;
32788;SDS011;19141;48.980;8.410;2023-04-29T12:58:21;5.57;;;3.13;;
32788;SDS011;19141;48.980;8.410;2023-04-29T13:00:46;4.97;;;2.80;;
32788;SDS011;19141;48.980;8.410;2023-04-29T13:03:12;5.20;;;2.92;;
32788;SDS011;19141;48.980;8.410;2023-04-29T13:05:38;6.80;;;3.25;;
32788;SDS011;19141;48.980;8.410;2023-04-29T13:08:03;6.55;;;3.13;;
32788;SDS011;19141;48.980;8.410;2023-04-29T13:10:32;4.93;;;3.13;;
32788;SDS011;19141;48.980;8.410;2023-04-29T13:12:58;6.57;;;2.88;;
32788;SDS011;19141;48.980;8.410;2023-04-29T13:15:24;4.97;;;2.85;;
32788;SDS011;19141;48.980;8.410;2023-04-29T13:17:50;3.40;;;2.15;;
32788;SDS011;19141;48.980;8.410;2023-04-29T13:20:15;6.18;;;3.03;;
32788;SDS011;19141;48.980;8.410;2023-04-29T13:22:41;4.78;;;3.10;;
32788;SDS011;19141;48.980;8.410;2023-04-29T13:25:08;4.05;;;2.88;;
32788;SDS011;19141;48.980;8.410;2023-04-29T13:27:37;7.15;;;3.28;;
32788;SDS011;19141;48.980;8.410;2023-04-29T13:30:06;3.97;;;2.90;;
32788;SDS011;19141;48.980;8.410;2023-04-29T13:32:33;5.07;;;2.58;;
32788;SDS011;19141;48.980;8.410;2023-04-29T13:34:58;4.63;;;2.88;;
32788;SDS011;19141;48.980;8.410;2023-04-29T13:37:23;5.00;;;2.83;;
32788;SDS011;19141;48.980;8.410;2023-04-29T13:39:49;5.00;;;2.20;;
32788;SDS011;19141;48.980;8.410;2023-04-29T13:42:14;3.35;;;2.20;;
32788;SDS011;19141;48.980;8.410;2023-04-29T13:44:40;6.30;;;3.75;;
32788;SDS011;19141;48.980;8.410;2023-04-29T13:47:09;5.40;;;3.08;;
32788;SDS011;19141;48.980;8.410;2023-04-29T13:49:36;5.93;;;2.65;;
32788;SDS011;19141;48.980;8.410;2023-04-29T13:52:02;4.70;;;3.10;;
32788;SDS011;19141;48.980;8.410;2023-04-29T13:54:28;4.30;;;3.15;;
32788;SDS011;19141;48.980;8.410;2023-04-29T13:56:53;4.90;;;2.88;;
32788;SDS011;19141;48.980;8.410;2023-04-29T13:59:18;3.25;;;2.08;;
32788;SDS011;19141;48.980;8.410;2023-04-29T14:01:44;6.75;;;2.95;;
32788;SDS011;19141;48.980;8.410;2023-04-29T14:04:10;2.85;;;2.03;;
32788;SDS011;19141;48.980;8.410;2023-04-29T14:06:35;4.53;;;2.40;;
32788;SDS011;19141;48.980;8.410;2023-04-29T14:09:01;4.32;;;2.42;;
32788;SDS011;19141;48.980;8.410;2023-04-29T14:11:27;4.82;;;2.53;;
32788;SDS011;19141;48.980;8.410;2023-04-29T14:13:53;4.18;;;2.50;;
32788;SDS011;19141;48.980;8.410;2023-04-29T14:16:19;3.38;;;2.30;;
32788;SDS011;19141;48.980;8.410;2023-04-29T14:18:44;3.97;;;2.58;;
32788;SDS011;19141;48.980;8.410;2023-04-29T14:21:09;3.25;;;2.10;;
32788;SDS011;19141;48.980;8.410;2023-04-29T14:23:35;3.65;;;2.33;;
32788;SDS011;19141;48.980;8.410;2023-04-29T14:26:01;3.85;;;2.03;;
32788;SDS011;19141;48.980;8.410;2023-04-29T14:28:26;3.78;;;2.38;;
32788;SDS011;19141;48.980;8.410;2023-04-29T14:30:51;3.22;;;2.17;;
32788;SDS011;19141;48.980;8.410;2023-04-29T14:33:17;2.65;;;2.03;;
32788;SDS011;19141;48.980;8.410;2023-04-29T14:35:42;2.67;;;1.90;;
32788;SDS011;19141;48.980;8.410;2023-04-29T14:38:08;2.67;;;1.85;;
32788;SDS011;19141;48.980;8.410;2023-04-29T14:40:33;2.78;;;1.90;;
32788;SDS011;19141;48.980;8.410;2023-04-29T14:42:58;3.00;;;2.10;;
32788;SDS011;19141;48.980;8.410;2023-04-29T14:45:24;3.78;;;2.25;;
32788;SDS011;19141;48.980;8.410;2023-04-29T14:47:49;4.25;;;2.67;;
32788;SDS011;19141;48.980;8.410;2023-04-29T14:50:14;2.35;;;1.77;;
32788;SDS011;19141;48.980;8.410;2023-04-29T14:52:40;3.67;;;2.15;;
32788;SDS011;19141;48.980;8.410;2023-04-29T14:55:05;2.53;;;1.80;;
32788;SDS011;19141;48.980;8.410;2023-04-29T14:57:31;3.97;;;2.13;;
32788;SDS011;19141;48.980;8.410;2023-04-29T14:59:57;3.17;;;2.08;;
32788;SDS011;19141;48.980;8.410;2023-04-29T15:02:22;3.55;;;2.33;;
32788;SDS011;19141;48.980;8.410;2023-04-29T15:04:48;3.65;;;2.05;;
32788;SDS011;19141;48.980;8.410;2023-04-29T15:07:14;2.70;;;1.65;;
32788;SDS011;19141;48.980;8.410;2023-04-29T15:09:40;4.80;;;1.92;;
32788;SDS011;19141;48.980;8.410;2023-04-29T15:12:06;5.97;;;2.88;;
32788;SDS011;19141;48.980;8.410;2023-04-29T15:14:32;3.95;;;2.38;;
32788;SDS011;19141;48.980;8.410;2023-04-29T15:16:58;3.25;;;2.40;;
32788;SDS011;19141;48.980;8.410;2023-04-29T15:19:23;4.22;;;2.38;;
32788;SDS011;19141;48.980;8.410;2023-04-29T15:21:50;7.43;;;4.55;;
32788;SDS011;19141;48.980;8.410;2023-04-29T15:24:16;5.50;;;2.33;;
32788;SDS011;19141;48.980;8.410;2023-04-29T15:26:42;2.75;;;1.98;;
32788;SDS011;19141;48.980;8.410;2023-04-29T15:29:07;3.20;;;1.92;;
32788;SDS011;19141;48.980;8.410;2023-04-29T15:31:33;3.15;;;2.22;;
32788;SDS011;19141;48.980;8.410;2023-04-29T15:33:59;3.40;;;2.30;;
32788;SDS011;19141;48.980;8.410;2023-04-29T15:36:26;4.03;;;2.35;;
32788;SDS011;19141;48.980;8.410;2023-04-29T15:38:54;3.60;;;2.30;;
32788;SDS011;19141;48.980;8.410;2023-04-29T15:41:19;4.15;;;2.60;;
32788;SDS011;19141;48.980;8.410;2023-04-29T15:43:45;5.85;;;3.63;;
32788;SDS011;19141;48.980;8.410;2023-04-29T15:46:11;3.78;;;2.13;;
32788;SDS011;19141;48.980;8.410;2023-04-29T15:48:37;2.90;;;2.03;;
32788;SDS011;19141;48.980;8.410;2023-04-29T15:51:02;4.20;;;2.22;;
32788;SDS011;19141;48.980;8.410;2023-04-29T15:53:28;3.20;;;2.35;;
32788;SDS011;19141;48.980;8.410;2023-04-29T15:55:53;3.63;;;2.60;;
32788;SDS011;19141;48.980;8.410;2023-04-29T15:58:19;4.95;;;2.83;;
32788;SDS011;19141;48.980;8.410;2023-04-29T16:00:44;4.13;;;2.78;;
32788;SDS011;19141;48.980;8.410;2023-04-29T16:03:10;4.45;;;2.38;;
32788;SDS011;19141;48.980;8.410;2023-04-29T16:05:36;3.80;;;2.33;;
32788;SDS011;19141;48.980;8.410;2023-04-29T16:08:02;4.43;;;2.65;;
32788;SDS011;19141;48.980;8.410;2023-04-29T16:10:29;3.95;;;2.38;;
32788;SDS011;19141;48.980;8.410;2023-04-29T16:12:54;4.20;;;2.83;;
32788;SDS011;19141;48.980;8.410;2023-04-29T16:15:19;4.63;;;2.25;;
32788;SDS011;19141;48.980;8.410;2023-04-29T16:17:45;3.60;;;2.58;;
32788;SDS011;19141;48.980;8.410;2023-04-29T16:20:10;3.92;;;2.25;;
32788;SDS011;19141;48.980;8.410;2023-04-29T16:22:36;5.03;;;2.25;;
32788;SDS011;19141;48.980;8.410;2023-04-29T16:25:02;3.03;;;2.10;;
32788;SDS011;19141;48.980;8.410;2023-04-29T16:27:28;3.22;;;2.10;;
32788;SDS011;19141;48.980;8.410;2023-04-29T16:29:54;2.85;;;2.05;;
32788;SDS011;19141;48.980;8.410;2023-04-29T16:32:19;3.10;;;2.30;;
32788;SDS011;19141;48.980;8.410;2023-04-29T16:34:46;3.40;;;2.35;;
32788;SDS011;19141;48.980;8.410;2023-04-29T16:37:12;5.38;;;2.60;;
32788;SDS011;19141;48.980;8.410;2023-04-29T16:39:38;3.03;;;2.00;;
32788;SDS011;19141;48.980;8.410;2023-04-29T16:42:04;2.67;;;1.83;;
32788;SDS011;19141;48.980;8.410;2023-04-29T16:44:30;2.65;;;2.10;;
32788;SDS011;19141;48.980;8.410;2023-04-29T16:46:55;3.00;;;1.80;;
32788;SDS011;19141;48.980;8.410;2023-04-29T16:49:23;3.08;;;2.20;;
32788;SDS011;19141;48.980;8.410;2023-04-29T16:51:52;4.43;;;3.08;;
32788;SDS011;19141;48.980;8.410;2023-04-29T16:54:19;7.38;;;4.13;;
32788;SDS011;19141;48.980;8.410;2023-04-29T16:56:48;3.70;;;2.40;;
32788;SDS011;19141;48.980;8.410;2023-04-29T16:59:13;6.55;;;3.38;;
32788;SDS011;19141;48.980;8.410;2023-04-29T17:01:38;3.03;;;2.15;;
32788;SDS011;19141;48.980;8.410;2023-04-29T17:04:05;3.38;;;2.28;;
32788;SDS011;19141;48.980;8.410;2023-04-29T17:06:31;2.70;;;1.67;;
32788;SDS011;19141;48.980;8.410;2023-04-29T17:08:57;3.08;;;1.92;;
32788;SDS011;19141;48.980;8.410;2023-04-29T17:11:23;4.05;;;2.60;;
32788;SDS011;19141;48.980;8.410;2023-04-29T17:13:48;3.60;;;2.28;;
32788;SDS011;19141;48.980;8.410;2023-04-29T17:16:14;2.45;;;1.83;;
32788;SDS011;19141;48.980;8.410;2023-04-29T17:18:40;2.40;;;1.70;;
32788;SDS011;19141;48.980;8.410;2023-04-29T17:21:06;2.47;;;2.03;;
32788;SDS011;19141;48.980;8.410;2023-04-29T17:23:33;2.95;;;2.00;;
32788;SDS011;19141;48.980;8.410;2023-04-29T17:25:58;2.80;;;2.10;;
32788;SDS011;19141;48.980;8.410;2023-04-29T17:28:24;3.25;;;2.10;;
32788;SDS011;19141;48.980;8.410;2023-04-29T17:30:49;2.90;;;2.10;;
32788;SDS011;19141;48.980;8.410;2023-04-29T17:33:17;3.20;;;2.13;;
32788;SDS011;19141;48.980;8.410;2023-04-29T17:35:42;2.50;;;1.85;;
32788;SDS011;19141;48.980;8.410;2023-04-29T17:38:08;3.67;;;1.90;;
32788;SDS011;19141;48.980;8.410;2023-04-29T17:40:35;7.57;;;4.28;;
32788;SDS011;19141;48.980;8.410;2023-04-29T17:43:01;6.07;;;4.22;;
32788;SDS011;19141;48.980;8.410;2023-04-29T17:45:27;6.47;;;3.78;;
32788;SDS011;19141;48.980;8.410;2023-04-29T17:47:52;7.75;;;4.85;;
32788;SDS011;19141;48.980;8.410;2023-04-29T17:50:18;5.20;;;2.67;;
32788;SDS011;19141;48.980;8.410;2023-04-29T17:52:43;3.85;;;2.65;;
32788;SDS011;19141;48.980;8.410;2023-04-29T17:55:08;5.60;;;3.63;;
32788;SDS011;19141;48.980;8.410;2023-04-29T17:57:34;4.45;;;2.85;;
32788;SDS011;19141;48.980;8.410;2023-04-29T18:00:02;9.00;;;4.68;;
32788;SDS011;19141;48.980;8.410;2023-04-29T18:02:31;5.65;;;3.97;;
32788;SDS011;19141;48.980;8.410;2023-04-29T18:04:57;5.15;;;3.30;;
32788;SDS011;19141;48.980;8.410;2023-04-29T18:07:23;4.57;;;2.90;;
32788;SDS011;19141;48.980;8.410;2023-04-29T18:09:48;12.07;;;7.10;;
32788;SDS011;19141;48.980;8.410;2023-04-29T18:12:14;3.53;;;2.25;;
32788;SDS011;19141;48.980;8.410;2023-04-29T18:14:39;3.15;;;1.90;;
32788;SDS011;19141;48.980;8.410;2023-04-29T18:17:06;3.55;;;2.75;;
32788;SDS011;19141;48.980;8.410;2023-04-29T18:19:31;4.47;;;2.88;;
32788;SDS011;19141;48.980;8.410;2023-04-29T18:21:57;5.95;;;3.28;;
32788;SDS011;19141;48.980;8.410;2023-04-29T18:24:25;7.50;;;4.05;;
32788;SDS011;19141;48.980;8.410;2023-04-29T18:26:52;10.23;;;6.35;;
32788;SDS011;19141;48.980;8.410;2023-04-29T18:29:18;4.57;;;2.80;;
32788;SDS011;19141;48.980;8.410;2023-04-29T18:31:43;5.72;;;3.10;;
32788;SDS011;19141;48.980;8.410;2023-04-29T18:34:08;7.43;;;3.78;;
32788;SDS011;19141;48.980;8.410;2023-04-29T18:36:34;7.70;;;4.88;;
32788;SDS011;19141;48.980;8.410;2023-04-29T18:38:59;4.97;;;3.90;;
32788;SDS011;19141;48.980;8.410;2023-04-29T18:41:25;7.07;;;4.13;;
32788;SDS011;19141;48.980;8.410;2023-04-29T18:43:51;6.13;;;3.92;;
32788;SDS011;19141;48.980;8.410;2023-04-29T18:46:17;8.43;;;5.13;;
32788;SDS011;19141;48.980;8.410;2023-04-29T18:48:42;7.28;;;5.03;;
32788;SDS011;19141;48.980;8.410;2023-04-29T18:51:08;5.70;;;3.55;;
32788;SDS011;19141;48.980;8.410;2023-04-29T18:53:33;6.05;;;3.78;;
32788;SDS011;19141;48.980;8.410;2023-04-29T18:55:59;7.03;;;4.15;;
32788;SDS011;19141;48.980;8.410;2023-04-29T18:58:24;4.70;;;3.65;;
32788;SDS011;19141;48.980;8.410;2023-04-29T19:00:51;5.22;;;3.97;;
32788;SDS011;19141;48.980;8.410;2023-04-29T19:03:17;4.45;;;3.25;;
32788;SDS011;19141;48.980;8.410;2023-04-29T19:05:42;5.18;;;3.42;;
32788;SDS011;19141;48.980;8.410;2023-04-29T19:08:07;4.57;;;3.40;;
32788;SDS011;19141;48.980;8.410;2023-04-29T19:10:33;5.20;;;3.60;;
32788;SDS011;19141;48.980;8.410;2023-04-29T19:12:58;4.82;;;3.25;;
32788;SDS011;19141;48.980;8.410;2023-04-29T19:15:24;4.60;;;3.20;;
32788;SDS011;19141;48.980;8.410;2023-04-29T19:20:17;6.65;;;3.30;;
32788;SDS011;19141;48.980;8.410;2023-04-29T19:22:42;4.25;;;2.90;;
32788;SDS011;19141;48.980;8.410;2023-04-29T19:25:08;3.83;;;3.17;;
32788;SDS011;19141;48.980;8.410;2023-04-29T19:27:34;3.78;;;3.00;;
32788;SDS011;19141;48.980;8.410;2023-04-29T19:30:00;5.10;;;3.25;;
32788;SDS011;19141;48.980;8.410;2023-04-29T19:32:25;4.28;;;3.10;;
32788;SDS011;19141;48.980;8.410;2023-04-29T19:34:50;6.55;;;3.58;;